createdAt,value
2022-10-16T00:01:24.601Z,1.55
2022-10-16T00:03:52.070Z,1.52
2022-10-16T00:06:21.165Z,2.25
2022-10-16T00:08:49.446Z,1.65
2022-10-16T00:11:19.298Z,1.80
2022-10-16T00:13:49.394Z,4.20
2022-10-16T00:16:16.708Z,3.67
2022-10-16T00:18:44.201Z,3.88
2022-10-16T00:21:13.883Z,3.17
2022-10-16T00:23:41.594Z,6.32
2022-10-16T00:26:12.285Z,3.28
2022-10-16T00:28:39.639Z,2.95
2022-10-16T00:31:08.490Z,2.85
2022-10-16T00:33:36.037Z,3.60
2022-10-16T00:36:04.859Z,2.30
2022-10-16T00:38:32.047Z,1.45
2022-10-16T00:40:59.291Z,2.00
2022-10-16T00:43:38.852Z,2.42
2022-10-16T00:46:15.950Z,1.63
2022-10-16T00:48:46.960Z,1.65
2022-10-16T00:51:14.766Z,4.10
2022-10-16T00:53:41.847Z,2.63
2022-10-16T00:56:08.688Z,2.65
2022-10-16T00:58:35.708Z,2.20
2022-10-16T01:01:02.557Z,4.35
2022-10-16T01:03:33.880Z,7.18
2022-10-16T01:06:09.693Z,2.17
2022-10-16T01:08:56.658Z,2.00
2022-10-16T01:11:50.003Z,2.42
2022-10-16T01:14:27.848Z,2.20
2022-10-16T01:17:03.584Z,2.03
2022-10-16T01:20:11.962Z,2.78
2022-10-16T01:22:57.086Z,2.08
2022-10-16T01:25:40.809Z,2.08
2022-10-16T01:28:12.971Z,3.55
2022-10-16T01:30:43.005Z,2.50
2022-10-16T01:33:26.466Z,2.28
2022-10-16T01:35:56.992Z,2.97
2022-10-16T01:38:32.387Z,2.13
2022-10-16T01:41:04.064Z,1.63
2022-10-16T01:44:08.990Z,2.53
2022-10-16T01:46:40.248Z,1.80
2022-10-16T01:49:09.316Z,1.73
2022-10-16T01:51:38.100Z,1.35
2022-10-16T01:54:08.179Z,1.52
2022-10-16T01:56:36.808Z,2.03
2022-10-16T01:59:08.152Z,2.58
2022-10-16T02:01:38.197Z,1.40
2022-10-16T02:04:12.475Z,2.40
2022-10-16T02:06:39.261Z,1.25
2022-10-16T02:09:06.109Z,1.70
2022-10-16T02:11:33.015Z,2.08
2022-10-16T02:14:06.199Z,1.50
2022-10-16T02:16:42.443Z,1.77
2022-10-16T02:19:09.715Z,2.20
2022-10-16T02:21:52.057Z,1.58
2022-10-16T02:24:36.155Z,1.33
2022-10-16T02:27:35.091Z,1.45
2022-10-16T02:30:29.352Z,2.00
2022-10-16T02:32:59.650Z,1.65
2022-10-16T02:35:28.169Z,1.98
2022-10-16T02:37:56.398Z,1.77
2022-10-16T02:40:25.339Z,1.85
2022-10-16T02:42:54.631Z,1.50
2022-10-16T02:45:24.033Z,1.33
2022-10-16T02:47:50.984Z,1.70
2022-10-16T02:50:17.938Z,1.83
2022-10-16T02:52:44.828Z,1.75
2022-10-16T02:55:11.660Z,1.75
2022-10-16T02:57:39.502Z,1.77
2022-10-16T03:00:08.220Z,1.50
2022-10-16T03:02:35.121Z,1.45
2022-10-16T03:05:01.992Z,1.27
2022-10-16T03:07:28.913Z,1.40
2022-10-16T03:09:56.418Z,1.40
2022-10-16T03:12:23.565Z,1.48
2022-10-16T03:14:50.346Z,1.52
2022-10-16T03:17:17.881Z,1.90
2022-10-16T03:19:45.385Z,2.05
2022-10-16T03:22:12.243Z,1.52
2022-10-16T03:24:39.185Z,2.13
2022-10-16T03:27:06.220Z,1.98
2022-10-16T03:29:33.873Z,1.50
2022-10-16T03:32:01.438Z,1.38
2022-10-16T03:34:28.875Z,1.48
2022-10-16T03:36:55.932Z,1.67
2022-10-16T03:39:22.702Z,1.98
2022-10-16T03:41:49.504Z,1.75
2022-10-16T03:44:16.317Z,1.60
2022-10-16T03:46:43.149Z,2.20
2022-10-16T03:49:10.139Z,1.88
2022-10-16T03:51:37.219Z,1.85
2022-10-16T03:54:04.084Z,1.98
2022-10-16T03:56:30.861Z,1.60
2022-10-16T03:58:57.601Z,1.73
2022-10-16T04:01:24.574Z,1.80
2022-10-16T04:03:51.534Z,2.10
2022-10-16T04:06:18.414Z,2.50
2022-10-16T04:08:45.976Z,1.70
2022-10-16T04:11:12.856Z,2.22
2022-10-16T04:13:39.940Z,2.45
2022-10-16T04:16:07.012Z,2.00
2022-10-16T04:18:33.992Z,2.05
2022-10-16T04:21:05.477Z,1.95
2022-10-16T04:23:32.761Z,1.85
2022-10-16T04:26:01.071Z,2.05
2022-10-16T04:28:28.539Z,1.75
2022-10-16T04:30:55.947Z,2.00
2022-10-16T04:33:22.991Z,2.33
2022-10-16T04:35:49.814Z,2.80
2022-10-16T04:38:16.818Z,1.95
2022-10-16T04:40:44.152Z,2.55
2022-10-16T04:43:11.601Z,2.33
2022-10-16T04:45:38.393Z,1.88
2022-10-16T04:48:05.315Z,2.42
2022-10-16T04:50:32.120Z,2.65
2022-10-16T04:52:58.867Z,2.92
2022-10-16T04:55:25.709Z,2.55
2022-10-16T04:57:52.501Z,2.33
2022-10-16T05:00:19.432Z,2.45
2022-10-16T05:02:46.289Z,2.70
2022-10-16T05:05:13.159Z,2.10
2022-10-16T05:07:39.944Z,2.67
2022-10-16T05:10:06.930Z,2.20
2022-10-16T05:12:35.024Z,2.42
2022-10-16T05:15:01.795Z,2.72
2022-10-16T05:17:29.157Z,2.47
2022-10-16T05:19:56.142Z,3.03
2022-10-16T05:22:23.260Z,2.33
2022-10-16T05:24:50.245Z,2.53
2022-10-16T05:27:20.136Z,2.08
2022-10-16T05:29:48.252Z,2.00
2022-10-16T05:32:16.897Z,2.40
2022-10-16T05:34:44.523Z,2.25
2022-10-16T05:37:12.528Z,2.28
2022-10-16T05:39:39.709Z,1.98
2022-10-16T05:42:06.788Z,2.38
2022-10-16T05:47:00.658Z,2.50
2022-10-16T05:49:27.532Z,2.33
2022-10-16T05:51:54.479Z,2.17
2022-10-16T05:54:21.288Z,2.10
2022-10-16T05:56:48.122Z,2.20
2022-10-16T05:59:15.085Z,2.08
2022-10-16T06:01:41.928Z,2.13
2022-10-16T06:06:37.498Z,2.00
2022-10-16T06:09:05.304Z,1.83
2022-10-16T06:11:33.700Z,1.70
2022-10-16T06:14:08.132Z,1.63
2022-10-16T06:16:36.944Z,1.90
2022-10-16T06:19:07.418Z,1.90
2022-10-16T06:21:34.533Z,2.20
2022-10-16T06:24:01.843Z,2.00
2022-10-16T06:26:30.903Z,2.20
2022-10-16T06:28:59.727Z,1.90
2022-10-16T06:31:28.996Z,2.08
2022-10-16T06:33:57.399Z,1.48
2022-10-16T06:36:25.880Z,1.90
2022-10-16T06:38:53.128Z,1.50
2022-10-16T06:41:22.519Z,1.55
2022-10-16T06:43:49.585Z,2.00
2022-10-16T06:46:19.273Z,1.70
2022-10-16T06:48:46.515Z,1.70
2022-10-16T06:51:16.813Z,1.88
2022-10-16T06:54:02.892Z,1.70
2022-10-16T06:56:32.021Z,2.00
2022-10-16T06:58:59.692Z,2.05
2022-10-16T07:01:27.347Z,2.22
2022-10-16T07:03:54.368Z,2.20
2022-10-16T07:06:24.737Z,1.88
2022-10-16T07:08:51.521Z,1.85
2022-10-16T07:11:21.593Z,1.95
2022-10-16T07:13:52.712Z,1.75
2022-10-16T07:16:25.479Z,1.88
2022-10-16T07:18:55.366Z,1.70
2022-10-16T07:21:23.867Z,1.90
2022-10-16T07:23:59.694Z,1.63
2022-10-16T07:26:28.176Z,1.85
2022-10-16T07:28:55.068Z,1.73
2022-10-16T07:31:22.582Z,1.67
2022-10-16T07:33:50.006Z,2.30
2022-10-16T07:36:19.434Z,2.72
2022-10-16T07:38:47.339Z,1.90
2022-10-16T07:41:20.072Z,1.80
2022-10-16T07:43:51.982Z,2.53
2022-10-16T07:46:20.585Z,2.42
2022-10-16T07:48:49.090Z,1.63
2022-10-16T07:51:19.137Z,1.77
2022-10-16T07:53:46.511Z,1.60
2022-10-16T07:56:15.027Z,1.70
2022-10-16T07:58:42.072Z,2.17
2022-10-16T08:01:11.321Z,1.70
2022-10-16T08:03:38.416Z,1.85
2022-10-16T08:06:06.242Z,1.85
2022-10-16T08:08:33.225Z,1.73
2022-10-16T08:11:00.309Z,1.60
2022-10-16T08:13:27.736Z,1.42
2022-10-16T08:15:55.770Z,1.50
2022-10-16T08:18:23.345Z,1.60
2022-10-16T08:20:59.977Z,1.58
2022-10-16T08:23:27.721Z,1.83
2022-10-16T08:25:55.876Z,1.63
2022-10-16T08:28:23.575Z,1.27
2022-10-16T08:30:50.768Z,1.67
2022-10-16T08:33:17.694Z,1.83
2022-10-16T08:35:51.053Z,1.38
2022-10-16T08:38:18.004Z,0.98
2022-10-16T08:40:45.320Z,1.23
2022-10-16T08:43:20.772Z,1.23
2022-10-16T08:46:56.374Z,1.45
2022-10-16T08:49:25.623Z,1.50
2022-10-16T08:51:52.692Z,1.40
2022-10-16T08:54:41.637Z,1.63
2022-10-16T08:57:13.671Z,1.40
2022-10-16T08:59:40.801Z,1.60
2022-10-16T09:02:39.674Z,1.23
2022-10-16T09:05:31.122Z,1.70
2022-10-16T09:10:32.445Z,2.08
2022-10-16T09:13:11.342Z,1.13
2022-10-16T09:15:55.860Z,1.33
2022-10-16T09:18:51.919Z,1.23
2022-10-16T09:21:29.950Z,1.88
2022-10-16T09:24:01.191Z,1.42
2022-10-16T09:26:28.302Z,2.03
2022-10-16T09:28:55.289Z,1.35
2022-10-16T09:31:23.561Z,1.33
2022-10-16T09:34:07.147Z,2.70
2022-10-16T09:36:42.806Z,1.60
2022-10-16T09:39:13.111Z,1.17
2022-10-16T09:41:45.778Z,1.88
2022-10-16T09:44:32.722Z,1.20
2022-10-16T09:47:21.380Z,1.20
2022-10-16T09:50:00.576Z,1.23
2022-10-16T09:52:27.376Z,1.65
2022-10-16T09:55:02.494Z,1.17
2022-10-16T09:57:31.042Z,1.70
2022-10-16T09:59:59.486Z,1.60
2022-10-16T10:02:39.044Z,1.30
2022-10-16T10:05:07.580Z,1.95
2022-10-16T10:07:43.720Z,2.20
2022-10-16T10:10:25.860Z,1.42
2022-10-16T10:12:53.117Z,1.90
2022-10-16T10:15:24.676Z,1.70
2022-10-16T10:17:56.664Z,1.60
2022-10-16T10:20:25.906Z,1.85
2022-10-16T10:22:52.815Z,1.45
2022-10-16T10:25:50.915Z,1.25
2022-10-16T10:28:47.767Z,2.65
2022-10-16T10:31:39.892Z,1.45
2022-10-16T10:34:54.196Z,1.55
2022-10-16T10:37:47.888Z,1.48
2022-10-16T10:40:23.535Z,1.80
2022-10-16T10:42:57.873Z,1.65
2022-10-16T10:45:37.346Z,1.30
2022-10-16T10:48:36.157Z,1.73
2022-10-16T10:51:08.257Z,2.15
2022-10-16T10:53:45.568Z,2.10
2022-10-16T10:56:39.640Z,1.40
2022-10-16T10:59:44.068Z,1.60
2022-10-16T11:02:33.222Z,2.85
2022-10-16T11:05:05.870Z,2.30
2022-10-16T11:07:39.299Z,1.90
2022-10-16T11:10:22.936Z,1.73
2022-10-16T11:12:56.099Z,2.03
2022-10-16T11:15:26.672Z,1.75
2022-10-16T11:17:59.451Z,2.70
2022-10-16T11:20:51.562Z,1.60
2022-10-16T11:24:00.968Z,2.13
2022-10-16T11:26:33.988Z,2.17
2022-10-16T11:31:37.848Z,2.00
2022-10-16T11:34:16.830Z,2.35
2022-10-16T11:36:50.252Z,1.55
2022-10-16T11:39:31.115Z,1.95
2022-10-16T11:42:17.458Z,1.95
2022-10-16T11:45:06.045Z,1.52
2022-10-16T11:47:58.701Z,1.88
2022-10-16T11:53:13.035Z,2.63
2022-10-16T11:55:46.965Z,2.08
2022-10-16T11:58:35.545Z,1.77
2022-10-16T12:01:28.274Z,1.50
2022-10-16T12:04:22.374Z,2.15
2022-10-16T12:07:28.356Z,2.20
2022-10-16T12:09:57.201Z,2.20
2022-10-16T12:12:38.137Z,1.80
2022-10-16T12:15:29.781Z,2.00
2022-10-16T12:17:57.781Z,1.45
2022-10-16T12:20:31.845Z,1.50
2022-10-16T12:23:23.791Z,1.27
2022-10-16T12:25:56.968Z,1.30
2022-10-16T12:28:28.963Z,1.77
2022-10-16T12:31:02.040Z,1.93
2022-10-16T12:33:41.092Z,2.00
2022-10-16T12:36:16.763Z,1.90
2022-10-16T12:38:48.290Z,1.55
2022-10-16T12:41:29.901Z,1.60
2022-10-16T12:43:58.022Z,1.70
2022-10-16T12:46:30.989Z,1.90
2022-10-16T12:49:16.672Z,1.70
2022-10-16T12:51:44.152Z,1.95
2022-10-16T12:54:17.693Z,2.17
2022-10-16T12:57:40.088Z,1.73
2022-10-16T13:00:26.408Z,1.73
2022-10-16T13:03:12.611Z,1.67
2022-10-16T13:06:12.403Z,1.48
2022-10-16T13:09:08.492Z,1.60
2022-10-16T13:11:44.120Z,1.48
2022-10-16T13:14:17.523Z,1.33
2022-10-16T13:17:00.144Z,1.95
2022-10-16T13:19:44.863Z,2.10
2022-10-16T13:22:38.855Z,1.50
2022-10-16T13:25:39.631Z,1.50
2022-10-16T13:28:12.401Z,1.80
2022-10-16T13:30:52.978Z,1.45
2022-10-16T13:33:43.487Z,1.23
2022-10-16T13:36:24.771Z,1.42
2022-10-16T13:39:11.498Z,1.65
2022-10-16T13:41:38.620Z,1.88
2022-10-16T13:44:06.246Z,1.77
2022-10-16T13:46:35.506Z,2.67
2022-10-16T13:49:21.232Z,1.70
2022-10-16T13:51:59.208Z,1.92
2022-10-16T13:54:27.861Z,1.80
2022-10-16T13:57:03.539Z,1.20
2022-10-16T13:59:39.832Z,2.28
2022-10-16T14:02:23.603Z,1.67
2022-10-16T14:04:51.086Z,1.73
2022-10-16T14:07:27.656Z,1.85
2022-10-16T14:09:55.337Z,1.33
2022-10-16T14:12:25.585Z,1.83
2022-10-16T14:14:56.720Z,1.00
2022-10-16T14:17:26.777Z,1.63
2022-10-16T14:19:59.751Z,1.50
2022-10-16T14:22:40.968Z,1.80
2022-10-16T14:25:20.317Z,1.38
2022-10-16T14:28:17.238Z,2.05
2022-10-16T14:31:27.015Z,1.40
2022-10-16T14:33:53.989Z,1.92
2022-10-16T14:36:22.778Z,2.08
2022-10-16T14:39:19.843Z,2.50
2022-10-16T14:41:49.324Z,2.03
2022-10-16T14:44:19.069Z,2.20
2022-10-16T14:46:46.877Z,2.17
2022-10-16T14:49:13.632Z,2.20
2022-10-16T14:51:42.916Z,2.80
2022-10-16T14:54:10.763Z,1.92
2022-10-16T14:56:52.864Z,1.92
2022-10-16T14:59:37.381Z,2.22
2022-10-16T15:02:21.420Z,1.67
2022-10-16T15:04:48.765Z,1.70
2022-10-16T15:07:16.184Z,2.75
2022-10-16T15:09:49.045Z,1.33
2022-10-16T15:12:17.243Z,2.13
2022-10-16T15:14:44.721Z,1.60
2022-10-16T15:17:12.404Z,2.40
2022-10-16T15:19:39.516Z,1.80
2022-10-16T15:22:06.455Z,2.00
2022-10-16T15:24:33.293Z,2.00
2022-10-16T15:27:00.138Z,2.70
2022-10-16T15:29:27.013Z,2.58
2022-10-16T15:31:54.006Z,1.85
2022-10-16T15:34:20.972Z,2.00
2022-10-16T15:36:48.053Z,1.98
2022-10-16T15:39:16.633Z,2.53
2022-10-16T15:41:43.871Z,2.53
2022-10-16T15:44:10.843Z,2.30
2022-10-16T15:46:38.273Z,2.05
2022-10-16T15:49:05.361Z,2.33
2022-10-16T15:51:34.260Z,2.13
2022-10-16T15:54:03.095Z,1.50
2022-10-16T15:56:31.586Z,2.60
2022-10-16T15:58:59.290Z,2.83
2022-10-16T16:01:26.920Z,2.95
2022-10-16T16:03:55.214Z,3.17
2022-10-16T16:06:23.801Z,2.03
2022-10-16T16:08:51.857Z,2.15
2022-10-16T16:11:20.237Z,2.25
2022-10-16T16:13:47.361Z,2.38
2022-10-16T16:16:16.484Z,2.63
2022-10-16T16:18:44.072Z,1.92
2022-10-16T16:21:14.374Z,2.92
2022-10-16T16:23:41.200Z,2.70
2022-10-16T16:26:22.721Z,2.53
2022-10-16T16:28:49.864Z,2.78
2022-10-16T16:31:16.691Z,2.85
2022-10-16T16:33:43.637Z,2.25
2022-10-16T16:36:15.445Z,2.22
2022-10-16T16:38:42.935Z,2.63
2022-10-16T16:41:26.790Z,2.63
2022-10-16T16:43:54.588Z,5.05
2022-10-16T16:46:22.814Z,4.60
2022-10-16T16:48:51.405Z,3.25
2022-10-16T16:51:20.567Z,3.95
2022-10-16T16:53:50.507Z,3.60
2022-10-16T16:56:18.655Z,3.47
2022-10-16T16:58:50.325Z,4.57
2022-10-16T17:01:19.922Z,4.68
2022-10-16T17:03:50.904Z,4.88
2022-10-16T17:06:20.700Z,4.95
2022-10-16T17:08:49.281Z,6.80
2022-10-16T17:11:21.414Z,6.10
2022-10-16T17:13:52.524Z,6.43
2022-10-16T17:16:25.342Z,6.25
2022-10-16T17:18:53.925Z,6.47
2022-10-16T17:21:21.018Z,5.90
2022-10-16T17:23:47.903Z,5.75
2022-10-16T17:26:18.501Z,4.93
2022-10-16T17:28:45.410Z,4.97
2022-10-16T17:31:18.159Z,5.40
2022-10-16T17:33:45.715Z,4.15
2022-10-16T17:36:14.796Z,4.63
2022-10-16T17:38:42.697Z,4.40
2022-10-16T17:41:24.137Z,3.88
2022-10-16T17:43:52.098Z,4.75
2022-10-16T17:46:21.738Z,4.50
2022-10-16T17:48:51.280Z,6.03
2022-10-16T17:51:22.398Z,4.47
2022-10-16T17:53:54.955Z,5.03
2022-10-16T17:56:23.261Z,5.22
2022-10-16T17:58:52.061Z,4.90
2022-10-16T18:01:24.784Z,5.97
2022-10-16T18:03:53.037Z,4.13
2022-10-16T18:06:22.851Z,5.68
2022-10-16T18:08:51.095Z,3.83
2022-10-16T18:11:18.205Z,4.53
2022-10-16T18:13:45.059Z,5.20
2022-10-16T18:16:13.968Z,5.43
2022-10-16T18:18:42.333Z,4.72
2022-10-16T18:21:12.497Z,5.00
2022-10-16T18:23:40.361Z,7.03
2022-10-16T18:26:08.682Z,4.50
2022-10-16T18:28:35.641Z,4.32
2022-10-16T18:31:09.416Z,4.13
2022-10-16T18:33:36.352Z,4.15
2022-10-16T18:36:11.548Z,4.10
2022-10-16T18:38:39.111Z,5.53
2022-10-16T18:41:06.027Z,5.50
2022-10-16T18:43:34.213Z,6.10
2022-10-16T18:46:04.005Z,7.35
2022-10-16T18:48:32.009Z,5.85
2022-10-16T18:51:15.133Z,6.70
2022-10-16T18:53:44.035Z,6.25
2022-10-16T18:56:12.166Z,5.57
2022-10-16T18:58:41.295Z,5.85
2022-10-16T19:01:10.616Z,5.25
2022-10-16T19:03:43.427Z,6.32
2022-10-16T19:06:13.092Z,6.75
2022-10-16T19:08:41.350Z,7.00
2022-10-16T19:11:10.973Z,5.70
2022-10-16T19:13:38.112Z,6.20
2022-10-16T19:16:19.860Z,5.90
2022-10-16T19:18:49.245Z,6.63
2022-10-16T19:21:17.104Z,6.32
2022-10-16T19:23:44.267Z,6.47
2022-10-16T19:26:13.984Z,5.93
2022-10-16T19:28:41.215Z,6.82
2022-10-16T19:31:11.845Z,6.65
2022-10-16T19:33:39.684Z,6.75
2022-10-16T19:36:19.077Z,7.82
2022-10-16T19:38:47.156Z,7.05
2022-10-16T19:41:26.454Z,8.40
2022-10-16T19:43:54.304Z,7.55
2022-10-16T19:46:25.907Z,8.23
2022-10-16T19:49:01.088Z,8.88
2022-10-16T19:51:30.061Z,10.02
2022-10-16T19:54:03.076Z,10.18
2022-10-16T19:58:58.900Z,9.60
2022-10-16T20:01:28.485Z,8.85
2022-10-16T20:03:55.747Z,8.05
2022-10-16T20:06:22.826Z,7.53
2022-10-16T20:08:51.781Z,7.78
2022-10-16T20:11:25.580Z,8.35
2022-10-16T20:13:52.615Z,7.03
2022-10-16T20:16:20.266Z,7.07
2022-10-16T20:18:48.751Z,7.07
2022-10-16T20:21:18.548Z,6.43
2022-10-16T20:23:47.379Z,6.18
2022-10-16T20:26:14.512Z,4.82
2022-10-16T20:28:42.662Z,3.67
2022-10-16T20:31:13.707Z,5.75
2022-10-16T20:33:42.120Z,4.88
2022-10-16T20:36:13.407Z,4.88
2022-10-16T20:38:41.955Z,4.85
2022-10-16T20:41:09.428Z,3.47
2022-10-16T20:43:37.038Z,3.88
2022-10-16T20:46:06.050Z,3.53
2022-10-16T20:48:32.938Z,3.25
2022-10-16T20:51:00.116Z,3.30
2022-10-16T20:53:28.199Z,2.47
2022-10-16T20:55:55.055Z,3.28
2022-10-16T20:58:21.868Z,2.85
2022-10-16T21:00:48.669Z,2.75
2022-10-16T21:03:15.500Z,3.22
2022-10-16T21:05:42.815Z,3.15
2022-10-16T21:08:09.905Z,3.28
2022-10-16T21:10:36.739Z,2.60
2022-10-16T21:13:03.883Z,3.67
2022-10-16T21:15:30.768Z,3.40
2022-10-16T21:17:57.603Z,3.05
2022-10-16T21:20:24.879Z,3.78
2022-10-16T21:22:51.707Z,3.35
2022-10-16T21:25:18.524Z,2.70
2022-10-16T21:27:45.983Z,3.28
2022-10-16T21:30:12.985Z,3.03
2022-10-16T21:32:39.730Z,2.85
2022-10-16T21:35:07.580Z,3.88
2022-10-16T21:37:35.189Z,3.35
2022-10-16T21:40:02.325Z,3.47
2022-10-16T21:42:29.441Z,2.85
2022-10-16T21:44:56.600Z,3.33
2022-10-16T21:47:23.672Z,3.75
2022-10-16T21:49:50.517Z,4.15
2022-10-16T21:52:17.372Z,4.05
2022-10-16T21:54:44.201Z,3.75
2022-10-16T21:57:11.103Z,3.60
2022-10-16T21:59:56.241Z,3.50
2022-10-16T22:02:23.140Z,4.25
2022-10-16T22:04:49.897Z,3.80
2022-10-16T22:07:16.786Z,2.95
2022-10-16T22:09:43.623Z,3.53
2022-10-16T22:12:10.415Z,3.53
2022-10-16T22:14:37.197Z,3.03
2022-10-16T22:17:04.110Z,3.13
2022-10-16T22:19:31.165Z,3.05
2022-10-16T22:21:59.097Z,2.58
2022-10-16T22:24:25.980Z,3.60
2022-10-16T22:26:53.147Z,3.40
2022-10-16T22:29:19.960Z,2.50
2022-10-16T22:31:50.419Z,3.00
2022-10-16T22:34:17.221Z,3.28
2022-10-16T22:36:44.384Z,3.35
2022-10-16T22:39:11.427Z,3.88
2022-10-16T22:41:38.406Z,3.35
2022-10-16T22:44:05.339Z,2.60
2022-10-16T22:46:32.231Z,3.22
2022-10-16T22:48:59.264Z,3.65
2022-10-16T22:51:27.113Z,3.67
2022-10-16T22:53:54.356Z,3.53
2022-10-16T22:56:21.984Z,3.47
2022-10-16T22:58:49.112Z,2.75
2022-10-16T23:01:27.031Z,3.45
2022-10-16T23:03:54.270Z,3.97
2022-10-16T23:06:21.500Z,3.55
2022-10-16T23:08:52.178Z,3.70
2022-10-16T23:11:19.044Z,3.15
2022-10-16T23:13:46.195Z,3.08
2022-10-16T23:16:18.459Z,2.78
2022-10-16T23:18:46.056Z,2.72
2022-10-16T23:21:22.633Z,3.00
2022-10-16T23:23:50.492Z,3.47
2022-10-16T23:26:23.352Z,3.00
2022-10-16T23:28:50.801Z,3.30
2022-10-16T23:31:18.909Z,3.40
2022-10-16T23:33:45.896Z,3.00
2022-10-16T23:36:18.765Z,2.58
2022-10-16T23:38:46.558Z,2.75
2022-10-16T23:41:14.141Z,2.60
2022-10-16T23:43:41.377Z,2.50
2022-10-16T23:46:10.017Z,3.88
2022-10-16T23:48:39.895Z,2.92
2022-10-16T23:51:08.320Z,3.03
2022-10-16T23:53:35.413Z,2.88
2022-10-16T23:56:02.383Z,3.05
2022-10-16T23:58:29.327Z,2.78
